Westmoreland, New Hampshire
Current Conditions -  °F | °C
As of 7:35 PM on Monday 24 Nov 2014 (Local Time) from KEEN Reporting Station
Clear Clear  
Wind Chill: 63°   Ceiling: Unl
Heat Index: 63°   Visibility: 10mi
Dew Point: 55°   Wind: 18mph
Humidity: 77%   Direction: 190°S
Pressure: 29.61"   Gusts: 28mph
Location:  42.96°N, 72.44°W
Report Text: KEEN 250035Z AUTO 19016G24KT 10SM CLR 17/13 A2961 RMK AO1
Loading
Personal Weather Stations






























Interactive Weather Map New forecast layout! Learn more

10-Day Weather Forecast

Advertisements
Track Severe Weather on mobile